createdAt,value
2022-12-06T00:00:56.679Z,1013.29
2022-12-06T00:01:56.734Z,1013.25
2022-12-06T00:02:56.694Z,1013.24
2022-12-06T00:03:56.594Z,1013.25
2022-12-06T00:04:56.570Z,1013.24
2022-12-06T00:05:56.541Z,1013.21
2022-12-06T00:06:56.505Z,1013.27
2022-12-06T00:07:56.613Z,1013.22
2022-12-06T00:08:56.450Z,1013.21
2022-12-06T00:09:56.594Z,1013.25
2022-12-06T00:10:56.392Z,1013.21
2022-12-06T00:11:56.372Z,1013.19
2022-12-06T00:12:56.338Z,1013.22
2022-12-06T00:13:56.319Z,1013.21
2022-12-06T00:14:56.286Z,1013.21
2022-12-06T00:15:56.316Z,1013.16
2022-12-06T00:16:56.263Z,1013.17
2022-12-06T00:17:56.204Z,1013.18
2022-12-06T00:18:56.174Z,1013.19
2022-12-06T00:19:56.163Z,1013.19
2022-12-06T00:20:56.119Z,1013.20
2022-12-06T00:21:56.085Z,1013.24
2022-12-06T00:22:56.057Z,1013.24
2022-12-06T00:23:56.056Z,1013.24
2022-12-06T00:24:56.002Z,1013.24
2022-12-06T00:25:55.976Z,1013.22
2022-12-06T00:26:55.945Z,1013.25
2022-12-06T00:27:55.921Z,1013.22
2022-12-06T00:28:55.895Z,1013.21
2022-12-06T00:29:55.864Z,1013.19
2022-12-06T00:30:55.831Z,1013.18
2022-12-06T00:31:55.896Z,1013.18
2022-12-06T00:32:55.776Z,1013.18
2022-12-06T00:33:55.750Z,1013.18
2022-12-06T00:34:55.718Z,1013.18
2022-12-06T00:35:55.693Z,1013.19
2022-12-06T00:36:55.662Z,1013.19
2022-12-06T00:37:55.639Z,1013.16
2022-12-06T00:38:55.611Z,1013.17
2022-12-06T00:39:55.597Z,1013.18
2022-12-06T00:40:55.546Z,1013.14
2022-12-06T00:41:55.524Z,1013.15
2022-12-06T00:42:55.490Z,1013.13
2022-12-06T00:43:55.468Z,1013.12
2022-12-06T00:44:55.435Z,1013.16
2022-12-06T00:45:55.438Z,1013.15
2022-12-06T00:46:55.380Z,1013.15
2022-12-06T00:47:55.351Z,1013.16
2022-12-06T00:48:55.322Z,1013.19
2022-12-06T00:49:55.295Z,1013.17
2022-12-06T00:50:55.266Z,1013.18
2022-12-06T00:51:55.275Z,1013.18
2022-12-06T00:52:55.214Z,1013.18
2022-12-06T00:53:55.188Z,1013.16
2022-12-06T00:54:55.153Z,1013.17
2022-12-06T00:55:55.150Z,1013.21
2022-12-06T00:56:55.097Z,1013.19
2022-12-06T00:57:55.075Z,1013.21
2022-12-06T00:58:55.046Z,1013.21
2022-12-06T00:59:55.023Z,1013.24
2022-12-06T01:00:55.035Z,1013.21
2022-12-06T01:01:54.956Z,1013.24
2022-12-06T01:02:54.962Z,1013.24
2022-12-06T01:03:54.904Z,1013.25
2022-12-06T01:04:54.871Z,1013.23
2022-12-06T01:05:54.846Z,1013.22
2022-12-06T01:06:54.818Z,1013.23
2022-12-06T01:07:54.903Z,1013.23
2022-12-06T01:08:54.757Z,1013.25
2022-12-06T01:09:54.733Z,1013.24
2022-12-06T01:10:54.704Z,1013.18
2022-12-06T01:11:54.699Z,1013.24
2022-12-06T01:12:54.646Z,1013.22
2022-12-06T01:13:54.625Z,1013.24
2022-12-06T01:14:54.587Z,1013.24
2022-12-06T01:15:54.564Z,1013.25
2022-12-06T01:16:54.598Z,1013.26
2022-12-06T01:17:54.511Z,1013.24
2022-12-06T01:18:54.479Z,1013.28
2022-12-06T01:19:54.455Z,1013.30
2022-12-06T01:20:54.418Z,1013.25
2022-12-06T01:21:54.393Z,1013.27
2022-12-06T01:22:54.365Z,1013.22
2022-12-06T01:23:54.376Z,1013.21
2022-12-06T01:24:54.307Z,1013.18
2022-12-06T01:25:54.282Z,1013.17
2022-12-06T01:26:54.248Z,1013.18
2022-12-06T01:27:54.242Z,1013.17
2022-12-06T01:28:54.198Z,1013.16
2022-12-06T01:29:54.167Z,1013.13
2022-12-06T01:30:54.205Z,1013.15
2022-12-06T01:31:54.120Z,1013.14
2022-12-06T01:32:54.083Z,1013.14
2022-12-06T01:33:54.060Z,1013.15
2022-12-06T01:34:54.024Z,1013.15
2022-12-06T01:35:54.005Z,1013.16
2022-12-06T01:36:53.972Z,1013.18
2022-12-06T01:37:53.944Z,1013.16
2022-12-06T01:38:53.908Z,1013.20
2022-12-06T01:39:53.890Z,1013.21
2022-12-06T01:40:53.856Z,1013.16
2022-12-06T01:41:53.830Z,1013.23
2022-12-06T01:42:53.801Z,1013.20
2022-12-06T01:43:53.795Z,1013.18
2022-12-06T01:44:53.747Z,1013.18
2022-12-06T01:45:53.800Z,1013.17
2022-12-06T01:46:53.692Z,1013.17
2022-12-06T01:47:53.659Z,1013.17
2022-12-06T01:48:53.629Z,1013.16
2022-12-06T01:49:53.607Z,1013.17
2022-12-06T01:50:53.575Z,1013.19
2022-12-06T01:51:53.552Z,1013.18
2022-12-06T01:52:53.522Z,1013.18
2022-12-06T01:53:53.498Z,1013.18
2022-12-06T01:54:53.459Z,1013.15
2022-12-06T01:55:53.441Z,1013.13
2022-12-06T01:56:53.416Z,1013.12
2022-12-06T01:57:53.390Z,1013.16
2022-12-06T01:58:53.349Z,1013.12
2022-12-06T01:59:53.343Z,1013.15
2022-12-06T02:00:53.300Z,1013.14
2022-12-06T02:01:53.373Z,1013.15
2022-12-06T02:02:53.311Z,1013.14
2022-12-06T02:03:53.208Z,1013.14
2022-12-06T02:04:53.181Z,1013.09
2022-12-06T02:05:53.152Z,1013.09
2022-12-06T02:06:53.125Z,1013.07
2022-12-06T02:07:53.145Z,1013.09
2022-12-06T02:08:53.070Z,1013.09
2022-12-06T02:09:53.035Z,1013.08
2022-12-06T02:10:53.009Z,1013.06
2022-12-06T02:11:52.981Z,1013.03
2022-12-06T02:12:52.963Z,1012.99
2022-12-06T02:13:52.923Z,1013.06
2022-12-06T02:14:52.904Z,1013.04
2022-12-06T02:15:52.893Z,1013.00
2022-12-06T02:16:52.975Z,1013.00
2022-12-06T02:17:52.821Z,1013.03
2022-12-06T02:18:52.794Z,1013.02
2022-12-06T02:19:52.759Z,1013.00
2022-12-06T02:20:52.746Z,1013.03
2022-12-06T02:21:52.706Z,1013.00
2022-12-06T02:22:52.677Z,1013.02
2022-12-06T02:23:52.659Z,1013.01
2022-12-06T02:24:52.620Z,1013.00
2022-12-06T02:25:52.590Z,1013.02
2022-12-06T02:26:52.562Z,1012.98
2022-12-06T02:27:52.535Z,1013.00
2022-12-06T02:28:52.505Z,1012.95
2022-12-06T02:29:52.475Z,1012.97
2022-12-06T02:30:52.506Z,1012.94
2022-12-06T02:31:52.452Z,1012.92
2022-12-06T02:32:55.138Z,1012.92
2022-12-06T02:33:52.367Z,1012.88
2022-12-06T02:34:52.339Z,1012.92
2022-12-06T02:35:52.306Z,1012.89
2022-12-06T02:36:52.284Z,1012.89
2022-12-06T02:37:52.264Z,1012.91
2022-12-06T02:38:52.230Z,1012.89
2022-12-06T02:39:52.193Z,1012.87
2022-12-06T02:40:52.171Z,1012.88
2022-12-06T02:41:52.136Z,1012.86
2022-12-06T02:42:52.112Z,1012.86
2022-12-06T02:43:52.078Z,1012.83
2022-12-06T02:44:52.056Z,1012.84
2022-12-06T02:45:52.115Z,1012.86
2022-12-06T02:46:52.000Z,1012.82
2022-12-06T02:47:51.987Z,1012.83
2022-12-06T02:48:51.943Z,1012.83
2022-12-06T02:49:51.918Z,1012.80
2022-12-06T02:50:51.891Z,1012.83
2022-12-06T02:51:51.855Z,1012.79
2022-12-06T02:52:51.835Z,1012.79
2022-12-06T02:53:51.810Z,1012.82
2022-12-06T02:54:51.771Z,1012.80
2022-12-06T02:55:51.746Z,1012.81
2022-12-06T02:56:51.717Z,1012.82
2022-12-06T02:57:51.690Z,1012.81
2022-12-06T02:58:51.661Z,1012.78
2022-12-06T02:59:51.630Z,1012.77
2022-12-06T03:00:51.612Z,1012.78
2022-12-06T03:01:51.630Z,1012.79
2022-12-06T03:02:51.616Z,1012.79
2022-12-06T03:03:51.542Z,1012.80
2022-12-06T03:04:51.496Z,1012.77
2022-12-06T03:05:51.463Z,1012.83
2022-12-06T03:06:51.434Z,1012.78
2022-12-06T03:07:51.447Z,1012.78
2022-12-06T03:08:51.384Z,1012.80
2022-12-06T03:09:51.354Z,1012.80
2022-12-06T03:10:51.324Z,1012.81
2022-12-06T03:11:51.295Z,1012.82
2022-12-06T03:12:51.270Z,1012.82
2022-12-06T03:13:51.242Z,1012.81
2022-12-06T03:14:51.213Z,1012.82
2022-12-06T03:15:51.272Z,1012.83
2022-12-06T03:16:51.158Z,1012.84
2022-12-06T03:17:51.125Z,1012.85
2022-12-06T03:18:51.103Z,1012.83
2022-12-06T03:19:51.086Z,1012.80
2022-12-06T03:20:51.042Z,1012.83
2022-12-06T03:21:51.015Z,1012.85
2022-12-06T03:22:50.987Z,1012.86
2022-12-06T03:23:50.957Z,1012.88
2022-12-06T03:24:50.934Z,1012.91
2022-12-06T03:25:50.903Z,1012.88
2022-12-06T03:26:50.877Z,1012.89
2022-12-06T03:27:50.848Z,1012.92
2022-12-06T03:28:50.819Z,1012.91
2022-12-06T03:29:50.787Z,1012.91
2022-12-06T03:30:50.819Z,1012.92
2022-12-06T03:31:50.733Z,1012.93
2022-12-06T03:32:50.709Z,1012.92
2022-12-06T03:33:50.676Z,1012.88
2022-12-06T03:34:50.653Z,1012.90
2022-12-06T03:35:50.640Z,1012.88
2022-12-06T03:36:50.591Z,1012.88
2022-12-06T03:37:50.567Z,1012.87
2022-12-06T03:38:50.534Z,1012.89
2022-12-06T03:39:50.505Z,1012.90
2022-12-06T03:40:50.483Z,1012.86
2022-12-06T03:41:50.454Z,1012.88
2022-12-06T03:42:50.429Z,1012.83
2022-12-06T03:43:50.403Z,1012.85
2022-12-06T03:44:50.368Z,1012.85
2022-12-06T03:45:50.411Z,1012.82
2022-12-06T03:46:50.388Z,1012.85
2022-12-06T03:47:50.282Z,1012.86
2022-12-06T03:48:50.258Z,1012.81
2022-12-06T03:49:50.228Z,1012.79
2022-12-06T03:50:53.035Z,1012.76
2022-12-06T03:51:50.197Z,1012.79
2022-12-06T03:52:50.147Z,1012.74
2022-12-06T03:53:50.119Z,1012.73
2022-12-06T03:54:50.089Z,1012.77
2022-12-06T03:55:50.055Z,1012.72
2022-12-06T03:56:50.039Z,1012.71
2022-12-06T03:57:50.002Z,1012.72
2022-12-06T03:58:49.976Z,1012.72
2022-12-06T03:59:49.945Z,1012.71
2022-12-06T04:00:49.925Z,1012.69
2022-12-06T04:01:49.969Z,1012.71
2022-12-06T04:02:49.866Z,1012.70
2022-12-06T04:03:49.907Z,1012.72
2022-12-06T04:04:49.813Z,1012.72
2022-12-06T04:05:49.775Z,1012.74
2022-12-06T04:06:49.757Z,1012.72
2022-12-06T04:07:49.752Z,1012.72
2022-12-06T04:08:49.695Z,1012.72
2022-12-06T04:09:49.669Z,1012.72
2022-12-06T04:10:49.639Z,1012.74
2022-12-06T04:11:49.608Z,1012.73
2022-12-06T04:12:49.588Z,1012.73
2022-12-06T04:13:49.550Z,1012.76
2022-12-06T04:14:49.526Z,1012.73
2022-12-06T04:15:49.574Z,1012.74
2022-12-06T04:16:49.473Z,1012.67
2022-12-06T04:17:49.445Z,1012.71
2022-12-06T04:18:49.424Z,1012.73
2022-12-06T04:19:52.055Z,1012.68
2022-12-06T04:20:49.358Z,1012.72
2022-12-06T04:21:49.328Z,1012.70
2022-12-06T04:22:49.301Z,1012.68
2022-12-06T04:23:49.294Z,1012.74
2022-12-06T04:24:49.253Z,1012.71
2022-12-06T04:25:49.224Z,1012.70
2022-12-06T04:26:49.195Z,1012.73
2022-12-06T04:27:49.159Z,1012.70
2022-12-06T04:28:49.136Z,1012.71
2022-12-06T04:29:49.109Z,1012.72
2022-12-06T04:30:49.079Z,1012.74
2022-12-06T04:31:49.154Z,1012.69
2022-12-06T04:32:49.023Z,1012.71
2022-12-06T04:33:48.993Z,1012.71
2022-12-06T04:34:48.973Z,1012.72
2022-12-06T04:35:48.942Z,1012.70
2022-12-06T04:36:48.918Z,1012.70
2022-12-06T04:37:48.884Z,1012.70
2022-12-06T04:38:48.854Z,1012.71
2022-12-06T04:39:48.851Z,1012.70
2022-12-06T04:40:48.805Z,1012.66
2022-12-06T04:41:48.768Z,1012.66
2022-12-06T04:42:48.746Z,1012.66
2022-12-06T04:43:48.713Z,1012.64
2022-12-06T04:44:48.691Z,1012.63
2022-12-06T04:45:48.655Z,1012.63
2022-12-06T04:46:48.691Z,1012.63
2022-12-06T04:47:48.598Z,1012.63
2022-12-06T04:48:48.577Z,1012.60
2022-12-06T04:49:48.547Z,1012.62
2022-12-06T04:50:48.518Z,1012.62
2022-12-06T04:51:48.492Z,1012.61
2022-12-06T04:52:48.464Z,1012.59
2022-12-06T04:53:48.434Z,1012.59
2022-12-06T04:54:48.414Z,1012.57
2022-12-06T04:55:48.397Z,1012.60
2022-12-06T04:56:48.362Z,1012.60
2022-12-06T04:57:48.320Z,1012.61
2022-12-06T04:58:48.294Z,1012.60
2022-12-06T04:59:48.262Z,1012.60
2022-12-06T05:00:48.272Z,1012.61
2022-12-06T05:01:48.210Z,1012.60
2022-12-06T05:02:48.186Z,1012.61
2022-12-06T05:03:48.211Z,1012.60
2022-12-06T05:04:48.124Z,1012.61
2022-12-06T05:05:48.098Z,1012.58
2022-12-06T05:06:48.071Z,1012.58
2022-12-06T05:07:48.087Z,1012.58
2022-12-06T05:08:48.020Z,1012.58
2022-12-06T05:09:47.993Z,1012.55
2022-12-06T05:10:47.960Z,1012.57
2022-12-06T05:11:47.961Z,1012.56
2022-12-06T05:12:47.905Z,1012.56
2022-12-06T05:13:47.875Z,1012.54
2022-12-06T05:14:47.851Z,1012.53
2022-12-06T05:15:47.818Z,1012.53
2022-12-06T05:16:47.889Z,1012.50
2022-12-06T05:17:47.765Z,1012.50
2022-12-06T05:18:47.738Z,1012.52
2022-12-06T05:19:47.707Z,1012.52
2022-12-06T05:20:47.684Z,1012.54
2022-12-06T05:21:47.653Z,1012.54
2022-12-06T05:22:47.621Z,1012.56
2022-12-06T05:23:47.593Z,1012.56
2022-12-06T05:24:47.567Z,1012.54
2022-12-06T05:25:47.534Z,1012.53
2022-12-06T05:26:47.512Z,1012.55
2022-12-06T05:27:47.594Z,1012.55
2022-12-06T05:28:47.462Z,1012.58
2022-12-06T05:29:47.430Z,1012.56
2022-12-06T05:30:47.404Z,1012.58
2022-12-06T05:31:47.450Z,1012.61
2022-12-06T05:32:50.270Z,1012.55
2022-12-06T05:33:47.314Z,1012.51
2022-12-06T05:34:47.289Z,1012.53
2022-12-06T05:35:47.259Z,1012.54
2022-12-06T05:36:47.235Z,1012.54
2022-12-06T05:37:47.206Z,1012.59
2022-12-06T05:38:51.283Z,1012.57
2022-12-06T05:39:47.147Z,1012.58
2022-12-06T05:40:47.121Z,1012.58
2022-12-06T05:41:47.090Z,1012.57
2022-12-06T05:42:47.065Z,1012.59
2022-12-06T05:43:47.187Z,1012.55
2022-12-06T05:44:47.007Z,1012.56
2022-12-06T05:45:47.028Z,1012.55
2022-12-06T05:46:46.964Z,1012.54
2022-12-06T05:47:46.923Z,1012.53
2022-12-06T05:48:46.900Z,1012.50
2022-12-06T05:49:46.865Z,1012.49
2022-12-06T05:50:46.842Z,1012.45
2022-12-06T05:51:46.818Z,1012.51
2022-12-06T05:52:46.785Z,1012.47
2022-12-06T05:53:46.756Z,1012.45
2022-12-06T05:54:46.732Z,1012.39
2022-12-06T05:55:46.704Z,1012.41
2022-12-06T05:56:46.680Z,1012.36
2022-12-06T05:57:47.516Z,1012.37
2022-12-06T05:58:46.621Z,1012.37
2022-12-06T05:59:46.611Z,1012.37
2022-12-06T06:00:46.570Z,1012.34
2022-12-06T06:01:46.598Z,1012.39
2022-12-06T06:02:46.677Z,1012.35
2022-12-06T06:03:47.997Z,1012.38
2022-12-06T06:04:46.454Z,1012.37
2022-12-06T06:05:46.426Z,1012.42
2022-12-06T06:06:46.399Z,1012.41
2022-12-06T06:07:46.438Z,1012.36
2022-12-06T06:08:46.344Z,1012.41
2022-12-06T06:09:46.311Z,1012.40
2022-12-06T06:10:46.293Z,1012.39
2022-12-06T06:11:46.255Z,1012.40
2022-12-06T06:12:46.232Z,1012.39
2022-12-06T06:13:46.204Z,1012.41
2022-12-06T06:14:46.172Z,1012.42
2022-12-06T06:15:46.169Z,1012.43
2022-12-06T06:16:46.209Z,1012.39
2022-12-06T06:17:46.092Z,1012.41
2022-12-06T06:18:46.059Z,1012.43
2022-12-06T06:19:51.176Z,1012.44
2022-12-06T06:20:46.005Z,1012.43
2022-12-06T06:21:45.987Z,1012.42
2022-12-06T06:22:45.947Z,1012.40
2022-12-06T06:23:45.928Z,1012.40
2022-12-06T06:24:45.895Z,1012.41
2022-12-06T06:25:45.873Z,1012.38
2022-12-06T06:26:45.837Z,1012.39
2022-12-06T06:27:45.814Z,1012.38
2022-12-06T06:28:45.782Z,1012.40
2022-12-06T06:29:45.813Z,1012.42
2022-12-06T06:30:45.727Z,1012.42
2022-12-06T06:31:45.812Z,1012.40
2022-12-06T06:32:45.668Z,1012.44
2022-12-06T06:33:45.648Z,1012.44
2022-12-06T06:34:45.619Z,1012.45
2022-12-06T06:35:45.596Z,1012.46
2022-12-06T06:36:46.223Z,1012.48
2022-12-06T06:37:45.536Z,1012.46
2022-12-06T06:38:45.501Z,1012.46
2022-12-06T06:39:45.479Z,1012.48
2022-12-06T06:40:45.448Z,1012.50
2022-12-06T06:41:45.430Z,1012.42
2022-12-06T06:42:45.392Z,1012.46
2022-12-06T06:43:45.370Z,1012.41
2022-12-06T06:44:45.339Z,1012.45
2022-12-06T06:45:45.373Z,1012.44
2022-12-06T06:46:45.282Z,1012.46
2022-12-06T06:47:45.278Z,1012.46
2022-12-06T06:48:45.226Z,1012.47
2022-12-06T06:49:45.203Z,1012.44
2022-12-06T06:50:45.169Z,1012.47
2022-12-06T06:51:45.149Z,1012.48
2022-12-06T06:52:45.239Z,1012.47
2022-12-06T06:53:45.110Z,1012.51
2022-12-06T06:54:45.059Z,1012.47
2022-12-06T06:55:45.046Z,1012.49
2022-12-06T06:56:45.015Z,1012.52
2022-12-06T06:57:44.983Z,1012.55
2022-12-06T06:58:44.951Z,1012.51
2022-12-06T06:59:44.936Z,1012.51
2022-12-06T07:00:44.893Z,1012.53
2022-12-06T07:01:44.923Z,1012.56
2022-12-06T07:02:45.114Z,1012.51
2022-12-06T07:03:44.837Z,1012.55
2022-12-06T07:04:44.790Z,1012.55
2022-12-06T07:05:44.757Z,1012.54
2022-12-06T07:06:44.731Z,1012.53
2022-12-06T07:07:44.780Z,1012.54
2022-12-06T07:08:44.681Z,1012.55
2022-12-06T07:09:44.648Z,1012.53
2022-12-06T07:10:44.619Z,1012.53
2022-12-06T07:11:44.599Z,1012.53
2022-12-06T07:12:44.562Z,1012.52
2022-12-06T07:13:49.509Z,1012.50
2022-12-06T07:14:44.506Z,1012.50
2022-12-06T07:15:44.480Z,1012.48
2022-12-06T07:16:44.527Z,1012.51
2022-12-06T07:17:44.432Z,1012.49
2022-12-06T07:18:44.403Z,1012.51
2022-12-06T07:19:44.390Z,1012.53
2022-12-06T07:20:44.340Z,1012.51
2022-12-06T07:21:44.317Z,1012.53
2022-12-06T07:22:44.281Z,1012.54
2022-12-06T07:23:44.265Z,1012.57
2022-12-06T07:24:47.925Z,1012.56
2022-12-06T07:25:44.213Z,1012.56
2022-12-06T07:26:44.176Z,1012.57
2022-12-06T07:27:44.152Z,1012.59
2022-12-06T07:28:44.122Z,1012.61
2022-12-06T07:29:44.107Z,1012.57
2022-12-06T07:30:44.266Z,1012.55
2022-12-06T07:31:44.041Z,1012.58
2022-12-06T07:32:44.015Z,1012.55
2022-12-06T07:33:43.991Z,1012.54
2022-12-06T07:34:43.953Z,1012.62
2022-12-06T07:36:10.908Z,1012.62
2022-12-06T07:36:43.894Z,1012.61
2022-12-06T07:37:43.876Z,1012.62
2022-12-06T07:38:43.847Z,1012.63
2022-12-06T07:39:43.816Z,1012.64
2022-12-06T07:41:43.761Z,1012.65
2022-12-06T07:42:43.731Z,1012.66
2022-12-06T07:43:43.706Z,1012.67
2022-12-06T07:44:43.679Z,1012.71
2022-12-06T07:45:43.691Z,1012.70
2022-12-06T07:46:43.618Z,1012.70
2022-12-06T07:47:43.598Z,1012.71
2022-12-06T07:48:43.560Z,1012.71
2022-12-06T07:49:43.545Z,1012.75
2022-12-06T07:50:43.512Z,1012.76
2022-12-06T07:51:43.506Z,1012.71
2022-12-06T07:52:43.451Z,1012.73
2022-12-06T07:53:43.425Z,1012.71
2022-12-06T07:54:43.393Z,1012.71
2022-12-06T07:55:43.373Z,1012.72
2022-12-06T07:56:43.344Z,1012.73
2022-12-06T07:57:44.106Z,1012.73
2022-12-06T07:58:43.285Z,1012.76
2022-12-06T07:59:43.261Z,1012.76
2022-12-06T08:00:43.227Z,1012.72
2022-12-06T08:01:43.316Z,1012.77
2022-12-06T08:02:43.178Z,1012.80
2022-12-06T08:03:43.147Z,1012.77
2022-12-06T08:04:43.202Z,1012.75
2022-12-06T08:05:43.098Z,1012.75
2022-12-06T08:06:43.068Z,1012.77
2022-12-06T08:07:43.099Z,1012.78
2022-12-06T08:08:43.014Z,1012.80
2022-12-06T08:09:42.983Z,1012.83
2022-12-06T08:10:42.954Z,1012.83
2022-12-06T08:11:42.930Z,1012.81
2022-12-06T08:12:42.898Z,1012.87
2022-12-06T08:13:42.873Z,1012.82
2022-12-06T08:14:42.840Z,1012.84
2022-12-06T08:15:42.870Z,1012.84
2022-12-06T08:16:42.787Z,1012.84
2022-12-06T08:17:42.762Z,1012.78
2022-12-06T08:18:42.735Z,1012.83
2022-12-06T08:19:42.702Z,1012.83
2022-12-06T08:20:42.673Z,1012.83
2022-12-06T08:21:42.650Z,1012.84
2022-12-06T08:22:42.619Z,1012.86
2022-12-06T08:23:42.624Z,1012.90
2022-12-06T08:24:42.562Z,1012.89
2022-12-06T08:25:42.548Z,1012.94
2022-12-06T08:26:42.510Z,1012.93
2022-12-06T08:27:42.485Z,1012.91
2022-12-06T08:28:42.451Z,1012.93
2022-12-06T08:29:42.424Z,1012.94
2022-12-06T08:30:42.478Z,1012.94
2022-12-06T08:31:42.436Z,1012.93
2022-12-06T08:32:42.341Z,1012.88
2022-12-06T08:33:42.319Z,1012.90
2022-12-06T08:34:42.283Z,1012.95
2022-12-06T08:35:42.259Z,1012.96
2022-12-06T08:36:42.232Z,1012.97
2022-12-06T08:37:42.219Z,1012.90
2022-12-06T08:38:42.173Z,1012.94
2022-12-06T08:39:42.181Z,1012.92
2022-12-06T08:40:42.130Z,1012.94
2022-12-06T08:41:42.097Z,1012.92
2022-12-06T08:42:42.063Z,1012.91
2022-12-06T08:43:42.038Z,1012.93
2022-12-06T08:44:42.006Z,1012.92
2022-12-06T08:45:41.980Z,1012.95
2022-12-06T08:46:41.998Z,1012.93
2022-12-06T08:47:41.930Z,1012.93
2022-12-06T08:48:43.582Z,1012.94
2022-12-06T08:49:41.871Z,1012.98
2022-12-06T08:50:41.846Z,1012.98
2022-12-06T08:51:41.815Z,1012.99
2022-12-06T08:52:41.792Z,1012.99
2022-12-06T08:53:41.824Z,1013.02
2022-12-06T08:54:41.725Z,1013.02
2022-12-06T08:55:41.721Z,1013.03
2022-12-06T08:56:41.670Z,1013.04
2022-12-06T08:57:41.648Z,1013.01
2022-12-06T08:58:41.628Z,1013.04
2022-12-06T08:59:41.594Z,1013.02
2022-12-06T09:00:41.564Z,1013.07
2022-12-06T09:01:41.606Z,1013.07
2022-12-06T09:02:41.513Z,1013.06
2022-12-06T09:03:41.483Z,1013.07
2022-12-06T09:04:41.567Z,1013.10
2022-12-06T09:05:41.427Z,1013.07
2022-12-06T09:06:41.394Z,1013.09
2022-12-06T09:07:41.402Z,1013.11
2022-12-06T09:08:41.340Z,1013.10
2022-12-06T09:09:41.324Z,1013.11
2022-12-06T09:10:41.285Z,1013.07
2022-12-06T09:11:41.287Z,1013.10
2022-12-06T09:12:41.232Z,1013.13
2022-12-06T09:13:41.202Z,1013.09
2022-12-06T09:14:41.173Z,1013.09
2022-12-06T09:15:41.196Z,1013.12
2022-12-06T09:16:41.124Z,1013.10
2022-12-06T09:17:41.096Z,1013.08
2022-12-06T09:18:41.059Z,1013.11
2022-12-06T09:19:41.040Z,1013.08
2022-12-06T09:20:41.007Z,1013.10
2022-12-06T09:21:40.985Z,1013.10
2022-12-06T09:22:40.951Z,1013.10
2022-12-06T09:23:40.928Z,1013.13
2022-12-06T09:24:40.899Z,1013.09
2022-12-06T09:25:40.876Z,1013.15
2022-12-06T09:26:40.837Z,1013.18
2022-12-06T09:27:40.841Z,1013.10
2022-12-06T09:28:40.785Z,1013.12
2022-12-06T09:29:41.084Z,1013.10
2022-12-06T09:30:40.733Z,1013.12
2022-12-06T09:31:40.741Z,1013.13
2022-12-06T09:32:40.675Z,1013.13
2022-12-06T09:33:40.652Z,1013.09
2022-12-06T09:34:40.621Z,1013.11
2022-12-06T09:35:40.594Z,1013.11
2022-12-06T09:36:40.563Z,1013.13
2022-12-06T09:37:40.539Z,1013.11
2022-12-06T09:38:40.510Z,1013.12
2022-12-06T09:39:40.491Z,1013.16
2022-12-06T09:40:43.037Z,1013.17
2022-12-06T09:41:40.441Z,1013.15
2022-12-06T09:42:40.399Z,1013.14
2022-12-06T09:43:40.396Z,1013.18
2022-12-06T09:44:40.346Z,1013.16
2022-12-06T09:45:40.321Z,1013.15
2022-12-06T09:46:40.333Z,1013.18
2022-12-06T09:47:40.271Z,1013.19
2022-12-06T09:48:45.675Z,1013.18
2022-12-06T09:49:40.212Z,1013.15
2022-12-06T09:50:40.183Z,1013.18
2022-12-06T09:51:40.156Z,1013.18
2022-12-06T09:52:40.126Z,1013.17
2022-12-06T09:53:40.098Z,1013.18
2022-12-06T09:54:40.063Z,1013.22
2022-12-06T09:55:40.044Z,1013.18
2022-12-06T09:56:40.017Z,1013.17
2022-12-06T09:57:39.994Z,1013.14
2022-12-06T09:58:39.955Z,1013.13
2022-12-06T09:59:39.951Z,1013.15
2022-12-06T10:00:39.898Z,1013.17
2022-12-06T10:01:39.937Z,1013.11
2022-12-06T10:02:39.951Z,1013.14
2022-12-06T10:03:39.818Z,1013.09
2022-12-06T10:04:39.804Z,1013.11
2022-12-06T10:05:39.764Z,1013.11
2022-12-06T10:06:39.734Z,1013.11
2022-12-06T10:07:39.897Z,1013.11
2022-12-06T10:08:39.790Z,1013.14
2022-12-06T10:09:39.656Z,1013.12
2022-12-06T10:10:39.623Z,1013.10
2022-12-06T10:11:39.600Z,1013.13
2022-12-06T10:12:39.571Z,1013.09
2022-12-06T10:13:39.540Z,1013.09
2022-12-06T10:14:39.509Z,1013.09
2022-12-06T10:15:39.605Z,1013.07
2022-12-06T10:16:39.638Z,1013.08
2022-12-06T10:17:39.434Z,1013.07
2022-12-06T10:18:39.411Z,1013.05
2022-12-06T10:19:39.377Z,1013.06
2022-12-06T10:20:39.344Z,1013.03
2022-12-06T10:21:39.326Z,1013.00
2022-12-06T10:22:39.295Z,1013.02
2022-12-06T10:23:39.269Z,1013.01
2022-12-06T10:24:39.237Z,1013.00
2022-12-06T10:25:39.214Z,1013.00
2022-12-06T10:26:39.182Z,1012.99
2022-12-06T10:27:39.172Z,1012.98
2022-12-06T10:28:39.127Z,1012.95
2022-12-06T10:29:39.102Z,1012.92
2022-12-06T10:30:39.076Z,1012.92
2022-12-06T10:31:39.099Z,1012.91
2022-12-06T10:32:39.023Z,1012.87
2022-12-06T10:33:38.989Z,1012.92
2022-12-06T10:34:41.000Z,1012.88
2022-12-06T10:35:38.933Z,1012.87
2022-12-06T10:36:38.902Z,1012.85
2022-12-06T10:37:38.880Z,1012.87
2022-12-06T10:38:38.850Z,1012.85
2022-12-06T10:39:38.822Z,1012.84
2022-12-06T10:40:38.795Z,1012.82
2022-12-06T10:41:38.768Z,1012.89
2022-12-06T10:42:38.759Z,1012.80
2022-12-06T10:43:38.718Z,1012.80
2022-12-06T10:44:38.686Z,1012.78
2022-12-06T10:45:38.656Z,1012.81
2022-12-06T10:46:38.675Z,1012.78
2022-12-06T10:47:38.621Z,1012.79
2022-12-06T10:48:38.602Z,1012.77
2022-12-06T10:49:38.546Z,1012.77
2022-12-06T10:50:38.521Z,1012.79
2022-12-06T10:51:38.489Z,1012.79
2022-12-06T10:52:38.466Z,1012.77
2022-12-06T10:53:38.435Z,1012.80
2022-12-06T10:54:38.409Z,1012.77
2022-12-06T10:55:38.381Z,1012.74
2022-12-06T10:56:38.358Z,1012.75
2022-12-06T10:57:38.326Z,1012.74
2022-12-06T10:58:38.308Z,1012.71
2022-12-06T10:59:38.272Z,1012.71
2022-12-06T11:00:38.289Z,1012.68
2022-12-06T11:01:38.349Z,1012.66
2022-12-06T11:02:38.356Z,1012.67
2022-12-06T11:03:38.185Z,1012.67
2022-12-06T11:04:38.139Z,1012.66
2022-12-06T11:05:38.107Z,1012.61
2022-12-06T11:06:38.075Z,1012.60
2022-12-06T11:07:38.161Z,1012.59
2022-12-06T11:08:38.029Z,1012.57
2022-12-06T11:09:38.002Z,1012.57
2022-12-06T11:10:37.968Z,1012.54
2022-12-06T11:11:37.941Z,1012.58
2022-12-06T11:12:37.914Z,1012.51
2022-12-06T11:13:37.883Z,1012.55
2022-12-06T11:14:37.855Z,1012.63
2022-12-06T11:15:37.833Z,1012.63
2022-12-06T11:16:37.866Z,1012.65
2022-12-06T11:17:37.778Z,1012.65
2022-12-06T11:18:37.754Z,1012.65
2022-12-06T11:19:37.736Z,1012.65
2022-12-06T11:20:37.695Z,1012.64
2022-12-06T11:21:37.660Z,1012.63
2022-12-06T11:22:37.655Z,1012.63
2022-12-06T11:23:37.606Z,1012.59
2022-12-06T11:24:37.668Z,1012.62
2022-12-06T11:25:37.551Z,1012.60
2022-12-06T11:26:37.533Z,1012.62
2022-12-06T11:27:37.498Z,1012.59
2022-12-06T11:28:37.476Z,1012.59
2022-12-06T11:29:37.439Z,1012.57
2022-12-06T11:30:37.417Z,1012.58
2022-12-06T11:31:37.425Z,1012.55
2022-12-06T11:32:37.364Z,1012.54
2022-12-06T11:33:37.332Z,1012.51
2022-12-06T11:34:37.309Z,1012.52
2022-12-06T11:35:37.295Z,1012.52
2022-12-06T11:36:37.253Z,1012.47
2022-12-06T11:37:41.427Z,1012.49
2022-12-06T11:38:37.194Z,1012.45
2022-12-06T11:39:37.165Z,1012.45
2022-12-06T11:40:37.144Z,1012.44
2022-12-06T11:41:37.109Z,1012.43
2022-12-06T11:42:37.091Z,1012.40
2022-12-06T11:43:37.056Z,1012.43
2022-12-06T11:44:37.031Z,1012.43
2022-12-06T11:45:37.005Z,1012.41
2022-12-06T11:46:37.042Z,1012.38
2022-12-06T11:47:36.942Z,1012.42
2022-12-06T11:48:36.922Z,1012.40
2022-12-06T11:49:36.892Z,1012.42
2022-12-06T11:50:36.867Z,1012.45
2022-12-06T11:51:36.862Z,1012.48
2022-12-06T11:52:36.811Z,1012.45
2022-12-06T11:53:36.778Z,1012.49
2022-12-06T11:54:36.758Z,1012.46
2022-12-06T11:55:36.728Z,1012.46
2022-12-06T11:56:36.704Z,1012.47
2022-12-06T11:57:36.672Z,1012.48
2022-12-06T11:58:36.652Z,1012.46
2022-12-06T11:59:36.616Z,1012.47
2022-12-06T12:00:36.590Z,1012.42
2022-12-06T12:01:36.638Z,1012.43
2022-12-06T12:02:36.656Z,1012.42
2022-12-06T12:03:36.605Z,1012.40
2022-12-06T12:04:36.487Z,1012.42
2022-12-06T12:05:36.453Z,1012.39
2022-12-06T12:06:36.426Z,1012.43